Tiempo atmosférico en la estación meteorológica de Anaga, Santa Cruz de Tenerife (19 m.)



Fecha
DESCASC
Temp. máxima en grados centígrados (hora)
DESCASC
Temp. mínima en grados centígrados (hora)
DESCASC
Temp. media en grados centígrados
DESCASC
Racha de viento máxima en m/sg (hora)
DESCASC
Velocidad máxima media en intervalos de 10 minutos(hora)
DESCASC
Precipitaciones diarias en mm
DESCASC
Precipitaciones de 00:00 a 06:00 en mm
DESCASC
Precipitaciones de 06:00 a 12:00 en mm
DESCASC
Precipitaciones de 12:00 a 18:00 en mm
DESCASC
Precipitaciones de 18:00 a 24:00 en mm
DESCASC
05-04-2020 24.1 (17:00) 16.5 (08:20) 20.3 5.56 (12:10) 3.06 (13:00) 0 0 0 0 0
04-04-2020 23.3 (14:30) 16.5 (04:40) 19.9 5.56 (11:40) 2.78 (11:50) 0 0 0 0 0
03-04-2020 21.6 (12:30) 16.3 (07:30) 18.9 8.89 (14:30) 3.89 (14:10) 0 0 0 0 0
02-04-2020 22.1 (12:30) 14.6 (00:00) 18.4 6.39 (12:00) 2.78 (11:10) 0 0 0 0 0
01-04-2020 22 (13:50) 15.5 (00:00) 18.8 7.5 (15:40) 3.61 (15:00) 0 0 0 0 0
31-03-2020 21.4 (11:10) 16.1 (00:00) 18.8 6.67 (12:50) 3.89 (13:00) 0 0 0 0 0
30-03-2020 21 (12:20) 13.7 (00:00) 17.3 6.67 (12:50) 3.33 (13:00) 0 0 0 0 0
29-03-2020 21.2 (12:40) 13.4 (00:00) 17.3 5.28 (16:30) 2.5 (16:10) 0 0 0 0 0
28-03-2020 21.9 (13:40) 14.2 (00:00) 18 7.78 (15:00) 3.89 (15:00) 5.4 5.4 0 0 0
27-03-2020 21.6 (13:10) 16.2 (00:00) 18.9 9.44 (22:30) 4.17 (23:30) 2.8 0 0 0 2.8
26-03-2020 20.4 (12:50) 14.2 (00:00) 17.3 5.56 (13:00) 2.78 (13:10) 0.4 0 0.4 0 0
25-03-2020 22.3 (14:10) 16.3 (00:00) 19.3 6.94 (13:20) 3.33 (13:10) 0.2 0.2 0 0 0
24-03-2020 21.5 (11:20) 16.2 (00:00) 18.9 9.72 (04:00) 4.44 (03:10) -- -- -- 0 0.2
23-03-2020 20.4 (15:20) 13.7 (00:00) 17 16.94 (06:10) 6.39 (06:20) -- -- -- -- --
22-03-2020 23.3 (13:50) 14.6 (22:00) 18.9 13.33 (22:30) 5.28 (23:00) -- -- -- -- --
21-03-2020 20.5 (14:10) 15.8 (00:00) 18.2 9.72 (17:10) 3.89 (15:50) -- -- -- -- --
20-03-2020 21.7 (13:50) 16 (00:00) 18.9 10 (05:20) 3.89 (03:00) -- -- -- -- --
19-03-2020 21 (14:20) 17 (00:00) 19 15.28 (02:50) 6.11 (10:30) -- -- -- -- --
18-03-2020 20.1 (14:00) 15.1 (00:00) 17.6 15.28 (18:00) 5.56 (19:00) -- -- -- -- --
17-03-2020 20.1 (14:30) 14.3 (00:00) 17.2 10.56 (23:50) 3.89 (14:40) -- -- -- -- --
16-03-2020 21 (12:30) 16.1 (00:00) 18.6 10.28 (14:50) 5 (11:00) -- 0 0 -- --
15-03-2020 21.7 (14:10) 15.3 (00:00) 18.5 11.39 (12:00) 3.89 (12:50) 0 0 0 0 0
14-03-2020 22.3 (14:00) 17.5 (00:00) 19.9 10 (13:30) 4.17 (13:10) 0 0 0 0 0
13-03-2020 23.1 (13:40) 16.2 (00:10) 19.7 9.44 (04:00) 4.17 (03:50) 0 0 0 0 0
12-03-2020 26.5 (12:10) 13.8 (00:00) 20.2 6.39 (14:10) 4.17 (13:30) 0 0 0 0 0
11-03-2020 23.8 (12:50) 13.2 (00:00) 18.5 5.56 (13:50) 3.33 (14:30) 0 0 0 0 0
10-03-2020 23.5 (11:30) 13.4 (00:00) 18.4 7.5 (14:30) 3.61 (13:10) 0 0 0 0 0
09-03-2020 25.5 (15:00) 14.8 (00:00) 20.2 6.39 (12:00) 3.33 (13:40) 0 0 0 0 0

Gráficas

Temp. máximas Temp. mínimas Temp. medias Precipitaciones Rachas de viento máximas Velocidades máximas media en intervalos de 10 minutos

Datos horarios

Fecha y hora oficial Temperatura (ºC) Velocidad del viento (km/h) Dirección del viento Racha (km/h) Dirección de racha Precipitación (mm) Presión (hPa) Tendencia (hPa) Humedad (%)
2020-04-07 23:00:00 20.6 9 Norte 28 Noroeste 0 -- -- 70
2020-04-07 22:00:00 20.7 12 Norte 23 Norte 0 -- -- 72
2020-04-07 21:00:00 20.9 5 Norte 20 Nordeste 0 -- -- 69
2020-04-07 20:00:00 21.4 10 Norte 32 Norte 0 -- -- 71
2020-04-07 19:00:00 21.9 4 Sur 15 Sur 0 -- -- 71
2020-04-07 18:00:00 23.3 8 Sur 20 Sudeste 0 -- -- 66
2020-04-07 17:00:00 22.8 10 Sur 23 Sur 0 -- -- 69
2020-04-07 16:00:00 23.6 8 Sur 21 Sur 0 -- -- 68
2020-04-07 15:00:00 23.1 8 Sudeste 26 Sur 0 -- -- 69
2020-04-07 14:00:00 22.9 10 Sur 24 Este 0 -- -- 69
2020-04-07 13:00:00 22.9 10 Sudeste 24 Sudeste 0 -- -- 67
2020-04-07 12:00:00 22.4 13 Sudeste 25 Sudeste 0 -- -- 67
2020-04-07 11:00:00 22.8 10 Norte 23 Norte 0 -- -- 61
2020-04-07 10:00:00 22.1 6 Norte 14 Norte 0 -- -- 64
2020-04-07 09:00:00 18.7 4 Norte 8 Norte 0 -- -- 74
2020-04-07 08:00:00 18.9 2 Norte 20 Norte 0 -- -- 74
2020-04-07 07:00:00 19.5 8 Norte 22 Norte 0 -- -- 74
2020-04-07 06:00:00 19.7 10 Norte 27 Norte 0 -- -- 74
2020-04-07 05:00:00 19.9 13 Norte 27 Nordeste 0 -- -- 74
2020-04-07 04:00:00 19.9 13 Norte 30 Norte 0 -- -- 73
2020-04-07 03:00:00 20 8 Norte 24 Norte 0 -- -- 73
2020-04-07 02:00:00 20.2 12 Norte 28 Nordeste 0 -- -- 74
2020-04-07 01:00:00 20.2 9 Norte 21 Norte 0 -- -- 73
2020-04-07 00:00:00 20.3 8 Norte 20 Norte 0 -- -- 73
2020-04-06 23:00:00 20.3 9 Norte 18 Norte 0 -- -- 75
2020-04-06 22:00:00 20.6 8 Norte 19 Nordeste 0 -- -- 73
2020-04-06 21:00:00 20.9 8 Norte 20 Nordeste 0 -- -- 72
2020-04-06 20:00:00 21.6 9 Norte 18 Nordeste 0 -- -- 69
2020-04-06 19:00:00 22.7 7 Nordeste 24 Norte 0 -- -- 64
2020-04-06 18:00:00 23.5 7 Norte 17 Norte 0 -- -- 64
2020-04-06 17:00:00 24.4 8 Norte 20 Noroeste 0 -- -- 63
2020-04-06 16:00:00 25 7 Sudeste 15 Sur 0 -- -- 61
2020-04-06 15:00:00 24.3 9 Sur 15 Sur 0 -- -- 64
2020-04-06 14:00:00 23.9 8 Sur 17 Sur 0 -- -- 69
2020-04-06 13:00:00 23.5 9 Sur 15 Sur 0 -- -- 69
2020-04-06 12:00:00 23 7 Sur 14 Sur 0 -- -- 71
2020-04-06 11:00:00 22.4 5 Sur 11 Sur 0 -- -- 72
2020-04-06 10:00:00 21.9 5 Sur 8 Sudeste 0 -- -- 71
2020-04-06 09:00:00 17.7 3 Norte 8 Norte 0 -- -- 87
2020-04-06 08:00:00 16.6 4 Norte 6 Norte 0 -- -- 89
2020-04-06 07:00:00 16.7 4 Norte 8 Norte 0 -- -- 88
2020-04-06 06:00:00 17 4 Norte 6 Noroeste 0 -- -- 87
2020-04-06 05:00:00 17.4 4 Norte 6 Norte 0 -- -- 86
2020-04-06 04:00:00 18.3 4 Norte 6 Norte 0 -- -- 82
2020-04-06 03:00:00 20 3 Oeste 11 Nordeste 0 -- -- 76
2020-04-06 02:00:00 20.3 0 Calma 16 Nordeste 0 -- -- 74
2020-04-06 01:00:00 20.7 5 Norte 18 Norte 0 -- -- 73
2020-04-06 00:00:00 20.7 6 Norte 17 Nordeste 0 -- -- 73
2020-04-05 23:00:00 20.4 5 Norte 11 Norte 0 -- -- 74
2020-04-05 22:00:00 20.3 4 Norte 8 Norte 0 -- -- 77
2020-04-05 21:00:00 21.2 5 Sudoeste 10 Sudoeste 0 -- -- 75
2020-04-05 20:00:00 21.8 4 Sudoeste 10 Sudeste 0 -- -- 71
2020-04-05 19:00:00 22.3 5 Sudeste 17 Sur 0 -- -- 70
2020-04-05 18:00:00 23.5 9 Sur 17 Sur 0 -- -- 64
2020-04-05 17:00:00 24.1 8 Sur 13 Sur 0 -- -- 62
2020-04-05 16:00:00 23.3 5 Sur 15 Sudoeste 0 -- -- 60
2020-04-05 15:00:00 23.4 8 Sur 15 Sudeste 0 -- -- 66
2020-04-05 14:00:00 23.2 10 Sur 17 Sur 0 -- -- 69
2020-04-05 13:00:00 23 11 Sudeste 20 Sur 0 -- -- 69
2020-04-05 12:00:00 23 8 Sudoeste 17 Sur 0 -- -- 67
2020-04-05 11:00:00 22.1 6 Sudeste 14 Sudeste 0 -- -- 70
2020-04-05 10:00:00 21.1 4 Sur 10 Sur 0 -- -- 74
2020-04-05 09:00:00 17.8 3 Norte 8 Norte 0 -- -- 79
2020-04-05 08:00:00 16.7 5 Norte 9 Norte 0 -- -- 81
2020-04-05 07:00:00 17 0 Calma 9 Norte 0 -- -- 80
2020-04-05 06:00:00 16.7 4 Norte 8 Norte 0 -- -- 83
2020-04-05 05:00:00 17.3 5 Norte 9 Norte 0 -- -- 82
2020-04-05 04:00:00 17.2 4 Norte 8 Norte 0 -- -- 83
2020-04-05 03:00:00 17.6 5 Norte 8 Norte 0 -- -- 83
2020-04-05 02:00:00 18.2 5 Norte 8 Norte 0 -- -- 83
2020-04-05 01:00:00 17.5 3 Norte 7 Norte 0 -- -- 84
2020-04-05 00:00:00 18.5 0 Calma 8 Norte 0 -- -- 85
2020-04-04 23:00:00 19.2 0 Calma 6 Norte 0 -- -- 85
2020-04-04 22:00:00 20.1 0 Calma 5 Este 0 -- -- 83
2020-04-04 21:00:00 20.6 3 Sudeste 9 Sudeste 0 -- -- 80
2020-04-04 20:00:00 21 5 Sur 17 Sur 0 -- -- 81
2020-04-04 19:00:00 22.3 10 Sur 19 Nordeste 0 -- -- 65
2020-04-04 18:00:00 22.4 7 Sur 12 Sur 0 -- -- 73
2020-04-04 17:00:00 22.6 7 Sur 16 Sur 0 -- -- 73
2020-04-04 16:00:00 22.5 6 Sur 14 Sur 0 -- -- 73
2020-04-04 15:00:00 22.9 8 Sur 15 Sur 0 -- -- 72
2020-04-04 14:00:00 22.8 6 Sudeste 13 Sur 0 -- -- 72
2020-04-04 13:00:00 22 7 Sur 18 Sur 0 -- -- 76
2020-04-04 12:00:00 21.6 9 Sur 20 Sur 0 -- -- 77
2020-04-04 11:00:00 22 7 Sur 19 Este 0 -- -- 76
2020-04-04 10:00:00 21 7 Sudeste 18 Sudoeste 0 -- -- 72
2020-04-04 09:00:00 18 3 Norte 11 Este 0 -- -- 80
2020-04-04 08:00:00 16.6 4 Norte 11 Norte 0 -- -- 84
2020-04-04 07:00:00 16.5 6 Norte 12 Norte 0 -- -- 85
2020-04-04 06:00:00 17.1 3 Norte 9 Norte 0 -- -- 88
2020-04-04 05:00:00 16.7 3 Norte 7 Norte 0 -- -- 90
2020-04-04 04:00:00 16.9 2 Norte 8 Nordeste 0 -- -- 86
2020-04-04 03:00:00 17.4 4 Noroeste 8 Nordeste 0 -- -- 85
2020-04-04 02:00:00 17.4 5 Norte 10 Norte 0 -- -- 86
2020-04-04 01:00:00 17.9 4 Norte 9 Norte 0 -- -- 86
2020-04-04 00:00:00 19.2 0 Calma 9 Sur 0 -- -- 87
2020-04-03 23:00:00 19.3 4 Sur 16 Sudeste 0 -- -- 87
2020-04-03 22:00:00 19.4 5 Este 18 Sudeste 0 -- -- 87
2020-04-03 21:00:00 19.5 4 Norte 10 Norte 0 -- -- 84
2020-04-03 20:00:00 19.5 5 Nordeste 17 Nordeste 0 -- -- 83
2020-04-03 19:00:00 19.6 8 Nordeste 22 Nordeste 0 -- -- 80
2020-04-03 18:00:00 19.5 10 Norte 23 Norte 0 -- -- 78
2020-04-03 17:00:00 19.6 8 Norte 22 Norte 0 -- -- 76
2020-04-03 16:00:00 19.8 5 Norte 22 Norte 0 -- -- 74
2020-04-03 15:00:00 20 6 Este 32 Sudeste 0 -- -- 73
2020-04-03 14:00:00 20.7 14 Sudeste 28 Sudeste 0 -- -- 69
2020-04-03 13:00:00 20.9 14 Sudeste 26 Sur 0 -- -- 69
2020-04-03 12:00:00 20.1 6 Este 23 Sudeste 0 -- -- 68
2020-04-03 11:00:00 19.4 11 Sudeste 19 Sudeste 0 -- -- 70
2020-04-03 10:00:00 18.7 9 Sudeste 17 Sur 0 -- -- 72
2020-04-03 09:00:00 17.1 3 Norte 6 Norte 0 -- -- 79
2020-04-03 08:00:00 16.4 4 Norte 6 Norte 0 -- -- 79
2020-04-03 07:00:00 16.5 0 Calma 5 Nordeste 0 -- -- 80
2020-04-03 06:00:00 16.8 4 Norte 7 Norte 0 -- -- 79
2020-04-03 05:00:00 17 4 Norte 6 Norte 0 -- -- 79
2020-04-03 04:00:00 17.9 0 Calma 6 Sur 0 -- -- 74
2020-04-03 03:00:00 18.2 0 Calma 8 Sur 0 -- -- 73
2020-04-03 02:00:00 18.3 2 Sudeste 7 Sudeste 0 -- -- 73
2020-04-03 01:00:00 18.4 4 Sur 12 Sudeste 0 -- -- 72
2020-04-03 00:00:00 18.4 4 Sudeste 11 Sudeste 0 -- -- 72
2020-04-02 23:00:00 18.6 5 Sudeste 14 Sur 0 -- -- 71
2020-04-02 22:00:00 18.5 6 Sudeste 10 Sudeste 0 -- -- 72
2020-04-02 21:00:00 18.4 3 Sudeste 12 Sudeste 0 -- -- 71
2020-04-02 20:00:00 18.9 5 Sudeste 14 Sudeste 0 -- -- 71
2020-04-02 19:00:00 19.9 4 Sudeste 13 Sur 0 -- -- 67
2020-04-02 18:00:00 20.8 6 Sur 16 Sudeste 0 -- -- 64
2020-04-02 17:00:00 21.8 8 Sur 18 Sudeste 0 -- -- 60
2020-04-02 16:00:00 22.1 7 Sur 18 Sur 0 -- -- 59
2020-04-02 15:00:00 21.8 8 Sudeste 23 Sur 0 -- -- 61
2020-04-02 14:00:00 22 9 Sur 20 Sur 0 -- -- 62
2020-04-02 13:00:00 21.9 9 Sur 20 Sur 0 -- -- 62
2020-04-02 12:00:00 21.3 10 Sudeste 23 Sudeste 0 -- -- 65
2020-04-02 11:00:00 20.8 10 Sur 21 Sur 0 -- -- 66
2020-04-02 10:00:00 19.7 9 Sur 15 Sur 0 -- -- 68
2020-04-02 09:00:00 15.5 4 Norte 8 Norte 0 -- -- 80
2020-04-02 08:00:00 14.6 5 Norte 9 Norte 0 -- -- 83
2020-04-02 07:00:00 14.9 6 Norte 10 Norte 0 -- -- 83
2020-04-02 06:00:00 15.2 5 Norte 7 Norte 0 -- -- 83
2020-04-02 05:00:00 15.2 4 Norte 8 Norte 0 -- -- 82
2020-04-02 04:00:00 15 4 Norte 9 Noroeste 0 -- -- 83
2020-04-02 03:00:00 15.7 3 Norte 6 Norte 0 -- -- 80
2020-04-02 02:00:00 16.2 4 Norte 7 Norte 0 -- -- 79
2020-04-02 01:00:00 17.2 4 Norte 8 Norte 0 -- -- 75
2020-04-02 00:00:00 17.7 2 Noroeste 5 Norte 0 -- -- 73
2020-04-01 23:00:00 17.6 2 Noroeste 5 Nordeste 0 -- -- 73
2020-04-01 22:00:00 18.4 0 Calma 8 Norte 0 -- -- 70
2020-04-01 21:00:00 18.6 5 Norte 15 Norte 0 -- -- 68
2020-04-01 20:00:00 19.4 6 Norte 16 Noroeste 0 -- -- 65
2020-04-01 19:00:00 19.7 5 Sudeste 14 Sudeste 0 -- -- 67
2020-04-01 18:00:00 20.3 6 Sudeste 19 Sur 0 -- -- 66
2020-04-01 17:00:00 21 12 Sur 22 Sudeste 0 -- -- 64
2020-04-01 16:00:00 21.5 10 Sudeste 27 Sudeste 0 -- -- 62
2020-04-01 15:00:00 21.2 13 Sudeste 24 Sudeste 0 -- -- 62
2020-04-01 14:00:00 21.7 9 Sudeste 21 Sudeste 0 -- -- 60
2020-04-01 13:00:00 21.6 8 Sur 21 Sudeste 0 -- -- 62
2020-04-01 12:00:00 21.5 7 Sudeste 13 Sur 0 -- -- 61
2020-04-01 11:00:00 20.4 7 Sur 13 Sur 0 -- -- 64
2020-04-01 10:00:00 19.9 5 Sur 11 Sur 0 -- -- 63
2020-04-01 09:00:00 15.7 0 Calma 4 Norte 0 -- -- 82
2020-04-01 08:00:00 16 3 Norte 12 Noroeste 0 -- -- 79
2020-04-01 07:00:00 17.1 4 Norte 13 Norte 0 -- -- 75
2020-04-01 06:00:00 17.6 6 Norte 15 Nordeste 0 -- -- 75
2020-04-01 05:00:00 17.7 5 Norte 13 Norte 0 -- -- 76
2020-04-01 04:00:00 17.9 3 Norte 12 Noroeste 0 -- -- 77
2020-04-01 03:00:00 17.6 6 Norte 13 Norte 0 -- -- 78
2020-04-01 02:00:00 16.4 2 Norte 6 Norte 0 -- -- 80
2020-04-01 01:00:00 16.7 0 Calma 8 Norte 0 -- -- 78
2020-04-01 00:00:00 18.1 0 Calma 9 Norte 0 -- -- 74
2020-03-31 23:00:00 18.8 3 Norte 8 Noroeste 0 -- -- 71
2020-03-31 22:00:00 19 3 Norte 15 Norte 0 -- -- 71
2020-03-31 21:00:00 19.2 5 Nordeste 9 Norte 0 -- -- 70
2020-03-31 20:00:00 19.8 4 Norte 12 Este 0 -- -- 69
2020-03-31 19:00:00 20.3 2 Norte 12 Norte 0 -- -- 66
2020-03-31 18:00:00 20.6 5 Sudeste 10 Sudeste 0 -- -- 69
2020-03-31 17:00:00 20.9 5 Sur 17 Sudeste 0 -- -- 74
2020-03-31 16:00:00 20.6 9 Sur 22 Sudeste 0 -- -- 76
2020-03-31 15:00:00 20.5 13 Sudeste 23 Sudeste 0 -- -- 75
2020-03-31 14:00:00 21 12 Sudeste 23 Sudeste 0 -- -- 72
2020-03-31 13:00:00 21.2 14 Sudeste 24 Sur 0 -- -- 71
2020-03-31 12:00:00 20.9 10 Sudeste 21 Sur 0 -- -- 71
2020-03-31 11:00:00 21.1 6 Sudeste 20 Sur 0 -- -- 69
2020-03-31 10:00:00 20.4 3 Este 13 Norte 0 -- -- 70
2020-03-31 09:00:00 18.4 7 Nordeste 14 Nordeste 0 -- -- 78
2020-03-31 08:00:00 17.4 0 Calma 6 Norte 0 -- -- 77
2020-03-31 07:00:00 17.8 0 Calma 5 Norte 0 -- -- 74
2020-03-31 06:00:00 18 0 Calma 12 Norte 0 -- -- 75
2020-03-31 05:00:00 18.6 4 Norte 12 Norte 0 -- -- 70
2020-03-31 04:00:00 16.1 2 Norte 6 Norte 0 -- -- 81
2020-03-31 03:00:00 16.3 3 Norte 6 Norte 0 -- -- 78
2020-03-31 02:00:00 17.3 2 Norte 6 Norte 0 -- -- 74
2020-03-31 01:00:00 17.9 2 Norte 8 Norte 0 -- -- 69
2020-03-31 00:00:00 19.3 5 Noroeste 14 Norte 0 -- -- 63
2020-03-30 23:00:00 19 0 Calma 5 Sudeste 0 -- -- 78
2020-03-30 22:00:00 19 0 Calma 6 Sur 0 -- -- 77
2020-03-30 21:00:00 19.1 0 Calma 6 Oeste 0 -- -- 76
2020-03-30 20:00:00 19.2 2 Norte 15 Sudeste 0 -- -- 75
2020-03-30 19:00:00 19.4 5 Norte 15 Este 0 -- -- 73
2020-03-30 18:00:00 19.4 5 Este 13 Noroeste 0 -- -- 73
2020-03-30 17:00:00 19.2 6 Nordeste 15 Este 0 -- -- 73
2020-03-30 16:00:00 19.5 6 Nordeste 15 Nordeste 0 -- -- 72
2020-03-30 15:00:00 20.1 6 Este 22 Sudeste 0 -- -- 69
2020-03-30 14:00:00 20.6 12 Sudeste 23 Sudeste 0 -- -- 67
2020-03-30 13:00:00 20.8 12 Sudeste 24 Sur 0 -- -- 66
2020-03-30 12:00:00 20.7 9 Sudeste 20 Sudeste 0 -- -- 65
2020-03-30 11:00:00 20.1 10 Sudeste 18 Sudeste 0 -- -- 67
2020-03-30 10:00:00 19.4 5 Sudeste 13 Oeste 0 -- -- 65
2020-03-30 09:00:00 14.9 6 Norte 10 Norte 0 -- -- 81
2020-03-30 08:00:00 14.2 5 Norte 8 Norte 0 -- -- 82
2020-03-30 07:00:00 14 5 Norte 8 Norte 0 -- -- 83
2020-03-30 06:00:00 14.2 4 Norte 7 Norte 0 -- -- 82
2020-03-30 05:00:00 14.3 5 Norte 7 Norte 0 -- -- 82
2020-03-30 04:00:00 14.5 4 Norte 8 Norte 0 -- -- 81
2020-03-30 03:00:00 14.6 5 Norte 9 Norte 0 -- -- 79
2020-03-30 02:00:00 15.1 4 Norte 8 Norte 0 -- -- 79
2020-03-30 01:00:00 15.3 5 Norte 7 Norte 0 -- -- 80
2020-03-30 00:00:00 16 5 Norte 8 Norte 0 -- -- 79
2020-03-29 23:00:00 17.1 2 Norte 8 Norte 0 -- -- 77
2020-03-29 22:00:00 18 3 Norte 5 Nordeste 0 -- -- 78
2020-03-29 21:00:00 18.6 0 Calma 6 Sur 0 -- -- 74
2020-03-29 20:00:00 19.1 4 Sur 11 Sur 0 -- -- 72
2020-03-29 19:00:00 19.3 4 Sudeste 12 Sur 0 -- -- 71
2020-03-29 18:00:00 19.6 4 Sudeste 15 Sudeste 0 -- -- 67
2020-03-29 17:00:00 19.8 6 Sudeste 19 Sudeste 0 -- -- 66
2020-03-29 16:00:00 20.2 8 Sudeste 16 Sur 0 -- -- 64
2020-03-29 15:00:00 20 8 Sur 15 Sur 0 -- -- 64
2020-03-29 14:00:00 20.4 6 Sur 13 Sur 0 -- -- 63
2020-03-29 13:00:00 20.9 7 Sur 14 Sur 0 -- -- 61
2020-03-29 12:00:00 20.7 8 Sur 14 Sur 0 -- -- 60
2020-03-29 11:00:00 19.8 7 Sur 12 Sudeste 0 -- -- 61
2020-03-29 10:00:00 18.2 0 Calma 8 Norte 0 -- -- 64
2020-03-29 09:00:00 14.5 5 Norte 8 Noroeste 0 -- -- 76
2020-03-29 08:00:00 13.5 5 Norte 9 Norte 0 -- -- 78
2020-03-29 07:00:00 13.5 4 Norte 8 Norte 0 -- -- 83
2020-03-29 06:00:00 13.6 3 Norte 8 Norte 0 -- -- 84
2020-03-29 05:00:00 13.9 3 Norte 8 Norte 0 -- -- 84
2020-03-29 04:00:00 14.5 4 Norte 9 Norte 0 -- -- 83
2020-03-29 00:00:00 16.5 0 Calma 5 Norte 0 -- -- 76
2020-03-28 23:00:00 17.1 0 Calma 8 Noroeste 0 -- -- 74
2020-03-28 22:00:00 17.8 4 Norte 14 Nordeste 0 -- -- 71
2020-03-28 21:00:00 17.7 3 Norte 17 Nordeste 0 -- -- 71
2020-03-28 20:00:00 18.1 8 Norte 21 Norte 0 -- -- 69
2020-03-28 19:00:00 18.7 9 Norte 20 Norte 0 -- -- 66
2020-03-28 18:00:00 19 10 Norte 21 Norte 0 -- -- 65
2020-03-28 17:00:00 20.2 10 Norte 25 Noroeste 0 -- -- 59
2020-03-28 16:00:00 20.7 10 Norte 28 Norte 0 -- -- 56
2020-03-28 15:00:00 20.2 14 Norte 28 Noroeste 0 -- -- 61
2020-03-28 14:00:00 21.8 13 Nordeste 27 Nordeste 0 -- -- 55
2020-03-28 13:00:00 21.5 12 Norte 27 Norte 0 -- -- 55
2020-03-28 12:00:00 20.4 12 Norte 24 Norte 0 -- -- 64
2020-03-28 11:00:00 20.3 12 Norte 21 Noroeste 0 -- -- 59
2020-03-28 10:00:00 18.4 6 Norte 15 Noroeste 0 -- -- 65
2020-03-28 09:00:00 17.9 4 Nordeste 16 Norte 0 -- -- 69
2020-03-28 08:00:00 14.7 3 Norte 8 Norte 0 -- -- 87
2020-03-28 07:00:00 14.6 0 Calma 6 Norte 0 -- -- 87
2020-03-28 06:00:00 14.3 3 Norte 6 Norte 0 -- -- 88
2020-03-28 05:00:00 14.6 0 Calma 9 Norte 0 -- -- 86
2020-03-28 04:00:00 14.9 4 Norte 11 Norte 0.2 -- -- 86
2020-03-28 03:00:00 15.5 5 Norte 17 Noroeste 5.2 -- -- 81
2020-03-28 02:00:00 16.5 2 Sudoeste 23 Nordeste 0 -- -- 75
2020-03-28 01:00:00 16.7 0 Calma 18 Nordeste 0 -- -- 75
2020-03-28 00:00:00 16.8 8 Norte 31 Norte 0 -- -- 72
2020-03-27 23:00:00 16.5 13 Norte 34 Noroeste 0.8 -- -- 77
2020-03-27 22:00:00 17 8 Norte 21 Noroeste 0 -- -- 76
2020-03-27 21:00:00 17 3 Norte 12 Nordeste 0 -- -- 77
2020-03-27 20:00:00 17.1 3 Noroeste 12 Noroeste 0 -- -- 78
2020-03-27 19:00:00 17.1 0 Calma 18 Norte 2 -- -- 83
2020-03-27 18:00:00 19.3 3 Sur 10 Sur 0 -- -- 71
2020-03-27 17:00:00 20 5 Sur 13 Sur 0 -- -- 66
2020-03-27 16:00:00 19.8 7 Sur 13 Sudeste 0 -- -- 66
2020-03-27 15:00:00 20.1 5 Sudeste 16 Sur 0 -- -- 65
2020-03-27 14:00:00 21.2 9 Sur 17 Sur 0 -- -- 60
2020-03-27 13:00:00 21.5 10 Sur 18 Sur 0 -- -- 58
2020-03-27 12:00:00 20.3 8 Sur 19 Sur 0 -- -- 63
2020-03-27 11:00:00 20.6 9 Sur 23 Sudeste 0 -- -- 61
2020-03-27 10:00:00 21 5 Nordeste 20 Norte 0 -- -- 55
2020-03-27 09:00:00 18.6 0 Calma 8 Nordeste 0 -- -- 60
2020-03-27 08:00:00 16.7 4 Norte 10 Norte 0 -- -- 71
2020-03-27 07:00:00 16.4 4 Norte 15 Nordeste 0 -- -- 70
2020-03-27 06:00:00 16.3 5 Norte 12 Norte 0 -- -- 72
2020-03-27 05:00:00 16.5 5 Norte 17 Norte 0 -- -- 71
2020-03-27 04:00:00 16.6 0 Calma 9 Norte 0 -- -- 75
2020-03-27 03:00:00 16.7 2 Noroeste 8 Noroeste 0 -- -- 72
2020-03-27 02:00:00 16.3 2 Norte 5 Norte 0 -- -- 77
2020-03-27 01:00:00 16.4 3 Norte 12 Noroeste 0 -- -- 76
2020-03-27 00:00:00 17.5 6 Norte 13 Noroeste 0 -- -- 65
2020-03-26 23:00:00 17.5 4 Norte 12 Norte 0 -- -- 64
2020-03-26 22:00:00 17.3 4 Norte 11 Norte 0 -- -- 66
2020-03-26 21:00:00 17.6 5 Norte 12 Nordeste 0 -- -- 66
2020-03-26 20:00:00 17.6 4 Norte 15 Norte 0 -- -- 66
2020-03-26 19:00:00 18 7 Norte 18 Norte 0 -- -- 62
2020-03-26 18:00:00 18.9 8 Norte 18 Norte 0 -- -- 57
2020-03-26 17:00:00 18.9 5 Norte 14 Norte 0 -- -- 60
2020-03-26 16:00:00 19.1 5 Sur 14 Sur 0 -- -- 65
2020-03-26 15:00:00 19.6 5 Oeste 10 Norte 0 -- -- 57
2020-03-26 14:00:00 19.9 6 Sudeste 19 Sudeste 0 -- -- 61
2020-03-26 13:00:00 19.6 10 Sudeste 20 Sudeste 0 -- -- 58
2020-03-26 12:00:00 18.7 6 Sudeste 10 Sudeste 0 -- -- 62
2020-03-26 11:00:00 16.9 3 Norte 13 Sudeste 0.4 -- -- 76
2020-03-26 10:00:00 18 3 Sur 6 Sur 0 -- -- 65
2020-03-26 09:00:00 16.8 0 Calma 6 Noroeste 0 -- -- 68
2020-03-26 08:00:00 15.1 4 Noroeste 9 Norte 0 -- -- 69
2020-03-26 07:00:00 14.5 5 Norte 9 Noroeste 0 -- -- 71
2020-03-26 06:00:00 15.4 4 Norte 8 Norte 0 -- -- 74
2020-03-26 05:00:00 16.2 3 Norte 6 Nordeste 0 -- -- 76
2020-03-26 04:00:00 16.3 3 Norte 8 Norte 0 -- -- 76
2020-03-26 03:00:00 16.5 5 Norte 9 Norte 0 -- -- 74
2020-03-26 02:00:00 16.8 4 Norte 6 Norte 0 -- -- 71
2020-03-26 01:00:00 16.6 0 Calma 6 Norte 0 -- -- 71
2020-03-26 00:00:00 16.8 0 Calma 5 Norte 0 -- -- 70
2020-03-25 23:00:00 17 2 Norte 5 Nordeste 0 -- -- 68
2020-03-25 22:00:00 17.2 3 Norte 14 Norte 0 -- -- 65
2020-03-25 21:00:00 17.8 3 Norte 15 Norte 0 -- -- 64
2020-03-25 20:00:00 18.1 6 Norte 17 Norte 0 -- -- 63
2020-03-25 19:00:00 18.5 7 Norte 14 Norte 0 -- -- 61
2020-03-25 18:00:00 19 7 Norte 21 Noroeste 0 -- -- 59
2020-03-25 17:00:00 20.9 8 Norte 24 Nordeste 0 -- -- 46
2020-03-25 16:00:00 21 7 Norte 25 Norte 0 -- -- 53
2020-03-25 15:00:00 20.8 8 Norte 22 Nordeste 0 -- -- 54
2020-03-25 14:00:00 21.4 8 Norte 25 Norte 0 -- -- 53
2020-03-25 13:00:00 22.1 7 Norte 21 Nordeste 0 -- -- 49
2020-03-25 12:00:00 20.4 8 Norte 18 Nordeste 0 -- -- 51
2020-03-25 11:00:00 20 4 Noroeste 12 Sur 0 -- -- 54
2020-03-25 10:00:00 19.7 4 Sudeste 12 Sudeste 0 -- -- 61
2020-03-25 09:00:00 18.3 3 Norte 7 Noroeste 0 -- -- 64
2020-03-25 08:00:00 17.2 3 Norte 9 Norte 0 -- -- 70
2020-03-25 07:00:00 17 3 Norte 10 Norte 0 -- -- 71
2020-03-25 06:00:00 17 0 Calma 13 Nordeste 0 -- -- 71
2020-03-25 05:00:00 16.4 0 Calma 11 Noroeste 0 -- -- 76
2020-03-25 04:00:00 16.4 3 Norte 7 Norte 0 -- -- 76
2020-03-25 03:00:00 16.5 3 Norte 9 Noroeste 0 -- -- 74
2020-03-25 02:00:00 16.8 0 Calma 18 Norte 0.2 -- -- 75
2020-03-25 01:00:00 17.3 6 Norte 24 Norte 0 -- -- 70
2020-03-25 00:00:00 16.9 11 Norte 23 Norte 0.2 -- -- 72
2020-03-24 23:00:00 17.5 8 Norte 24 Norte 0 -- -- 69
2020-03-24 22:00:00 18 5 Norte 18 Norte 0 -- -- 64
2020-03-24 21:00:00 17.9 3 Norte 19 Noroeste 0 -- -- 64
2020-03-24 20:00:00 18 6 Norte 26 Noroeste 0 -- -- 62
2020-03-24 19:00:00 18.4 7 Norte 22 Norte 0 -- -- 63
2020-03-24 18:00:00 19.3 10 Norte 21 Nordeste 0 -- -- 54
2020-03-24 17:00:00 20.9 9 Norte 21 Norte 0 -- -- 51
2020-03-24 16:00:00 20.5 5 Nordeste 24 Norte 0 -- -- 52
2020-03-24 15:00:00 20.2 9 Norte 24 Nordeste 0 -- -- 57
2020-03-24 14:00:00 19 11 Norte 28 Noroeste 0 -- -- 65
2020-03-24 13:00:00 19.8 13 Norte 33 Norte 0 -- -- 56
2020-03-24 12:00:00 20.8 9 Norte -- -- -- -- -- 56
2020-03-24 11:00:00 20.3 13 Norte 27 Norte -- -- -- 58
2020-03-24 10:00:00 19.7 10 Norte 28 Norte -- -- -- 60
2020-03-24 09:00:00 19 13 Norte 32 Norte -- -- -- 63
2020-03-24 08:00:00 18.2 11 Norte 28 Norte -- -- -- 64
2020-03-24 07:00:00 17.7 6 Norte 24 Norte -- -- -- 66
2020-03-24 06:00:00 17.7 9 Norte 30 Nordeste -- -- -- 66
2020-03-24 05:00:00 17.5 6 Norte 28 Norte -- -- -- 67
2020-03-24 04:00:00 17.7 12 Norte 35 Noroeste -- -- -- 67
2020-03-24 03:00:00 17.7 12 Norte 34 Noroeste -- -- -- 68
2020-03-24 02:00:00 17.6 11 Norte 33 Noroeste -- -- -- 70
2020-03-24 01:00:00 16.9 4 Norte 22 Norte -- -- -- 73
2020-03-24 00:00:00 16.9 6 Norte 29 Norte -- -- -- 73
2020-03-23 23:00:00 17.6 9 Norte 37 Norte -- -- -- 70
2020-03-23 22:00:00 17 8 Norte 39 Noroeste -- -- -- 72
2020-03-23 21:00:00 17.5 10 Norte 40 Norte -- -- -- 68
2020-03-23 20:00:00 17.2 14 Norte 48 Norte -- -- -- 71
2020-03-23 19:00:00 18.2 10 Norte 41 Norte -- -- -- 64
2020-03-23 18:00:00 18.5 11 Norte 32 Noroeste -- -- -- 63
2020-03-23 17:00:00 19.2 15 Norte 41 Nordeste -- -- -- 62
2020-03-23 16:00:00 19.4 14 Norte 47 Nordeste -- -- -- 62
2020-03-23 15:00:00 19.2 17 Norte 45 Norte -- -- -- 62
2020-03-23 14:00:00 19.8 16 Norte 43 Norte -- -- -- 59
2020-03-23 13:00:00 19 15 Norte 48 Norte -- -- -- 64
2020-03-23 12:00:00 18.2 19 Norte 45 Noroeste -- -- -- 63
2020-03-23 11:00:00 18.8 17 Norte 41 Norte -- -- -- 60
2020-03-23 10:00:00 17.3 14 Norte 43 Norte -- -- -- 62
2020-03-23 09:00:00 16.5 14 Noroeste 51 Noroeste -- -- -- 63
2020-03-23 08:00:00 16.4 13 Norte 52 Norte -- -- -- 65
2020-03-23 07:00:00 16.1 22 Norte 61 Noroeste -- -- -- 65
2020-03-23 06:00:00 15.6 18 Norte 50 Nordeste -- -- -- 66
2020-03-23 05:00:00 15.5 16 Norte 51 Noroeste -- -- -- 66
2020-03-23 04:00:00 15.1 13 Norte 43 Noroeste -- -- -- 68
2020-03-23 03:00:00 13.7 16 Norte 40 Norte -- -- -- 79
2020-03-23 02:00:00 16.7 17 Norte 46 Norte -- -- -- 58
2020-03-23 01:00:00 16.4 13 Norte 41 Noroeste -- -- -- 62
2020-03-23 00:00:00 16.3 13 Norte 34 Oeste -- -- -- 59
2020-03-22 23:00:00 16.6 19 Norte 48 Norte -- -- -- 66
2020-03-22 22:00:00 14.6 12 Norte 42 Nordeste -- -- -- 79
2020-03-22 21:00:00 16.9 10 Noroeste 31 Norte -- -- -- 61
2020-03-22 20:00:00 17.4 5 Noroeste 25 Norte -- -- -- 63
2020-03-22 19:00:00 17.3 4 Este 23 Sur -- -- -- 66
2020-03-22 18:00:00 16.5 8 Oeste 18 Norte -- -- -- 73
2020-03-22 17:00:00 16.1 9 Norte 33 Nordeste -- -- -- 78
2020-03-22 16:00:00 18.4 4 Noroeste 28 Norte -- -- -- 70
2020-03-22 15:00:00 21.4 11 Norte 35 Sur -- -- -- 45
2020-03-22 14:00:00 22.5 12 Norte 33 Sur -- -- -- 41
2020-03-22 13:00:00 22.7 9 Este 29 Sudeste -- -- -- 38
2020-03-22 12:00:00 21.9 7 Sur 27 Sudoeste -- -- -- 42
2020-03-22 11:00:00 20.6 7 Norte 26 Oeste -- -- -- 48
2020-03-22 10:00:00 19.7 8 Nordeste 32 Nordeste -- -- -- 50
2020-03-22 09:00:00 18.7 4 Noroeste 14 Oeste -- -- -- 54
2020-03-22 08:00:00 15.7 2 Este 24 Nordeste -- -- -- 69
2020-03-22 07:00:00 16.6 6 Norte 17 Norte -- -- -- 60
2020-03-22 06:00:00 16.6 5 Norte 23 Nordeste -- -- -- 62
2020-03-22 05:00:00 16.5 3 Nordeste 29 Norte -- -- -- 66
2020-03-22 04:00:00 16.9 7 Noroeste 23 Norte -- -- -- 62
2020-03-22 03:00:00 16.8 5 Norte 19 Norte -- -- -- 58
2020-03-22 02:00:00 17 6 Norte 22 Noroeste -- -- -- 57
2020-03-22 01:00:00 17.2 7 Norte 28 Norte -- -- -- 54
2020-03-22 00:00:00 17.2 9 Norte 29 Noroeste -- -- -- 58
2020-03-21 23:00:00 17.2 10 Norte 30 Norte -- -- -- 52
2020-03-21 22:00:00 17.5 7 Norte 29 Norte -- -- -- 53
2020-03-21 21:00:00 17.4 10 Norte 23 Noroeste -- -- -- 60
2020-03-21 20:00:00 17.5 6 Norte 33 Nordeste -- -- -- 64
2020-03-21 19:00:00 17.7 7 Norte 28 Noroeste -- -- -- 61
2020-03-21 18:00:00 18.4 9 Norte 35 Norte -- -- -- 57
2020-03-21 17:00:00 19.4 10 Norte 33 Norte -- -- -- 51
2020-03-21 16:00:00 20.5 10 Norte 33 Noroeste -- -- -- 44
2020-03-21 15:00:00 19.3 10 Norte 31 Noroeste -- -- -- 50
2020-03-21 14:00:00 20 10 Norte 29 Noroeste -- -- -- 50
2020-03-21 13:00:00 19.8 6 Nordeste 25 Norte -- -- -- 48
2020-03-21 12:00:00 19 10 Norte 22 Norte -- -- -- 53
2020-03-21 11:00:00 19.1 7 Norte 22 Norte -- -- -- 48
2020-03-21 10:00:00 18.1 8 Norte 17 Norte -- -- -- 52
2020-03-21 09:00:00 16.8 3 Nordeste 19 Nordeste -- -- -- 62
2020-03-21 08:00:00 16 6 Norte 20 Nordeste -- -- -- 65
2020-03-21 07:00:00 16.3 6 Norte 22 Noroeste -- -- -- 56
2020-03-21 06:00:00 16.2 4 Norte 27 Norte -- -- -- 54
2020-03-21 05:00:00 16.3 2 Sur 21 Noroeste -- -- -- 58
2020-03-21 04:00:00 16.5 5 Norte 29 Norte -- -- -- 60
2020-03-21 03:00:00 16.8 7 Norte 21 Nordeste -- -- -- 59
2020-03-21 02:00:00 17 7 Norte 27 Norte -- -- -- 62
2020-03-21 01:00:00 17.2 9 Norte 27 Norte -- -- -- 66
2020-03-21 00:00:00 17.3 9 Norte 27 Noroeste -- -- -- 69
2020-03-20 23:00:00 17.2 2 Norte 17 Norte -- -- -- 72
2020-03-20 22:00:00 17 7 Norte 19 Noroeste -- -- -- 76
2020-03-20 21:00:00 16.8 5 Norte 12 Norte -- -- -- 82
2020-03-20 20:00:00 16.3 2 Norte 10 Norte -- -- -- 87
2020-03-20 19:00:00 16.2 2 Nordeste 18 Norte -- -- -- 90
2020-03-20 18:00:00 16.7 8 Norte 25 Noroeste -- -- -- 85
2020-03-20 17:00:00 18.1 7 Norte 26 Norte -- -- -- 78
2020-03-20 16:00:00 18.5 10 Norte 28 Norte -- -- -- 72
2020-03-20 15:00:00 20.1 10 Norte 26 Nordeste -- -- -- 62
2020-03-20 14:00:00 21.6 10 Norte 28 Norte -- -- -- 50
2020-03-20 13:00:00 21.2 11 Norte 30 Norte -- -- -- 53
2020-03-20 12:00:00 20.9 11 Norte 30 Noroeste -- -- -- 55
2020-03-20 11:00:00 20.6 8 Norte 30 Norte -- -- -- 57
2020-03-20 10:00:00 19.5 8 Norte 24 Nordeste -- -- -- 61
2020-03-20 09:00:00 19 10 Norte 32 Nordeste -- -- -- 61
2020-03-20 08:00:00 17.6 5 Norte 20 Nordeste -- -- -- 69
2020-03-20 07:00:00 17.3 10 Noroeste 33 Noroeste -- -- -- 75
2020-03-20 06:00:00 18.2 10 Norte 36 Norte -- -- -- 59
2020-03-20 05:00:00 18.2 12 Norte 32 Noroeste -- -- -- 68
2020-03-20 04:00:00 18.1 9 Norte 35 Norte -- -- -- 68
2020-03-20 03:00:00 18.2 14 Norte 34 Nordeste -- -- -- 65
2020-03-20 02:00:00 18.3 10 Norte 22 Nordeste -- -- -- 68
2020-03-20 01:00:00 18.3 8 Norte 32 Norte -- -- -- 69
2020-03-20 00:00:00 18.2 5 Norte 34 Norte -- -- -- 72
2020-03-19 23:00:00 18.6 17 Norte 41 Nordeste -- -- -- 70
2020-03-19 22:00:00 18.7 10 Norte 40 Norte -- -- -- 71
2020-03-19 21:00:00 18.5 18 Norte 49 Norte -- -- -- 71
2020-03-19 20:00:00 18.7 13 Norte 32 Norte -- -- -- 70
2020-03-19 19:00:00 19 13 Norte 37 Nordeste -- -- -- 69
2020-03-19 18:00:00 19.3 16 Norte 34 Norte -- -- -- 68
2020-03-19 17:00:00 19.6 11 Norte 31 Noroeste -- -- -- 67
2020-03-19 16:00:00 20 10 Norte 31 Norte -- -- -- 69
2020-03-19 15:00:00 20.3 12 Norte 31 Norte -- -- -- 66
2020-03-19 14:00:00 20.2 11 Norte 32 Nordeste -- -- -- 71
2020-03-19 13:00:00 18.8 9 Norte 38 Nordeste -- -- -- 76
2020-03-19 12:00:00 20.7 14 Norte 39 Nordeste -- -- -- 65
2020-03-19 11:00:00 20.1 17 Norte 54 Norte -- -- -- 75
2020-03-19 10:00:00 20.4 18 Norte 46 Norte -- -- -- 66
2020-03-19 09:00:00 18.7 17 Norte 50 Noroeste -- -- -- 71
2020-03-19 08:00:00 18.5 15 Norte 45 Noroeste -- -- -- 70
2020-03-19 07:00:00 17.9 13 Norte 41 Noroeste -- -- -- 71
2020-03-19 06:00:00 17.9 18 Norte 47 Norte -- -- -- 69
2020-03-19 05:00:00 17.4 17 Norte 44 Noroeste -- -- -- 73
2020-03-19 04:00:00 17.1 12 Norte 41 Nordeste -- -- -- 72
2020-03-19 03:00:00 17.6 17 Norte 55 Norte -- -- -- 67
2020-03-19 02:00:00 17.8 13 Norte 40 Norte -- -- -- 66
2020-03-19 01:00:00 17.8 13 Noroeste 40 Noroeste -- -- -- 63
2020-03-19 00:00:00 17.9 13 Norte 39 Norte -- -- -- 61
2020-03-18 23:00:00 17.7 7 Norte 37 Nordeste -- -- -- 62
2020-03-18 22:00:00 17.7 16 Norte 34 Norte -- -- -- 65
2020-03-18 21:00:00 17.9 12 Norte 45 Norte -- -- -- 62
2020-03-18 20:00:00 17.9 10 Norte 49 Noroeste -- -- -- 60
2020-03-18 19:00:00 18.1 20 Norte 44 Norte -- -- -- 62
2020-03-18 18:00:00 18.5 16 Norte 55 Nordeste -- -- -- 57
2020-03-18 17:00:00 19.2 16 Norte 49 Norte -- -- -- 58
2020-03-18 16:00:00 19.3 12 Noroeste 34 Norte -- -- -- 55
2020-03-18 15:00:00 19.8 14 Norte 41 Norte -- -- -- 56
2020-03-18 14:00:00 20.1 7 Nordeste 34 Norte -- -- -- 52
2020-03-18 13:00:00 18.9 11 Norte 33 Noroeste -- -- -- 60
2020-03-18 12:00:00 18.5 6 Noroeste 35 Norte -- -- -- 59
2020-03-18 11:00:00 17.5 9 Norte 22 Norte -- -- -- 68
2020-03-18 10:00:00 18.2 7 Norte 22 Sur -- -- -- 59
2020-03-18 09:00:00 17.8 5 Norte 21 Norte -- -- -- 57
2020-03-18 08:00:00 15.8 6 Noroeste 22 Noroeste -- -- -- 69
2020-03-18 07:00:00 15.1 2 Nordeste 14 Norte -- -- -- 75
2020-03-18 06:00:00 16 5 Norte 30 Nordeste -- -- -- 65
2020-03-18 05:00:00 16 8 Norte 38 Nordeste -- -- -- 68
2020-03-18 04:00:00 15.8 13 Norte 37 Norte -- -- -- 67
2020-03-18 03:00:00 16.9 9 Norte 27 Nordeste -- -- -- 55
2020-03-18 02:00:00 16.4 6 Nordeste 30 Norte -- -- -- 66
2020-03-18 01:00:00 16.4 12 Norte 32 Norte -- -- -- 68
2020-03-18 00:00:00 16.3 6 Noroeste 38 Noroeste -- -- -- 72
2020-03-17 23:00:00 14.8 13 Norte 37 Noroeste -- -- -- 82
2020-03-17 22:00:00 16.7 12 Norte 29 Noroeste -- -- -- 68
2020-03-17 21:00:00 17.2 11 Norte 32 Norte -- -- -- 64
2020-03-17 20:00:00 17 10 Norte 25 Norte -- -- -- 67
2020-03-17 19:00:00 17.2 8 Norte 32 Norte -- -- -- 66
2020-03-17 18:00:00 17.4 8 Norte 31 Norte -- -- -- 66
2020-03-17 17:00:00 17.7 3 Nordeste 26 Norte -- -- -- 65
2020-03-17 16:00:00 18 7 Norte 28 Norte -- -- -- 64
2020-03-17 15:00:00 19.7 10 Norte 33 Norte -- -- -- 57
2020-03-17 14:00:00 18.8 10 Norte 30 Noroeste -- -- -- 62
2020-03-17 13:00:00 18.1 10 Norte 24 Noroeste -- -- -- 67
2020-03-17 12:00:00 18.8 7 Norte 27 Norte -- -- -- 61
2020-03-17 11:00:00 17.7 6 Norte 26 Norte -- -- -- 67
2020-03-17 10:00:00 17.3 5 Norte 21 Nordeste -- -- -- 60
2020-03-17 09:00:00 16.5 6 Norte 15 Sur -- -- -- 62
2020-03-17 08:00:00 15.8 4 Nordeste 20 Norte -- -- -- 68
2020-03-17 07:00:00 15.1 6 Norte 24 Noroeste -- -- -- 75
2020-03-17 06:00:00 15 4 Norte 23 Norte -- -- -- 73
2020-03-17 05:00:00 15.2 5 Norte 12 Norte -- -- -- 75
2020-03-17 04:00:00 14.5 6 Norte 22 Norte -- -- -- 80
2020-03-17 03:00:00 16 5 Norte 14 Norte -- -- -- 63
2020-03-17 02:00:00 15.8 11 Norte 26 Noroeste -- -- -- 67
2020-03-17 01:00:00 16 7 Norte 19 Noroeste -- -- -- 68
2020-03-17 00:00:00 16.1 8 Norte 32 Norte -- -- -- 75
2020-03-16 23:00:00 17.3 10 Norte 26 Norte -- -- -- 62
2020-03-16 22:00:00 17.3 9 Norte 26 Norte -- -- -- 66
2020-03-16 21:00:00 17.3 13 Norte 30 Noroeste -- -- -- 70
2020-03-16 20:00:00 16.8 7 Norte 27 Norte -- -- -- 75
2020-03-16 19:00:00 17.5 6 Norte 30 Noroeste -- -- -- 70
2020-03-16 18:00:00 16.9 9 Norte 32 Norte -- -- -- 80
2020-03-16 17:00:00 17.9 10 Norte 32 Nordeste -- -- -- 72
2020-03-16 16:00:00 17.3 9 Norte 35 Norte -- -- -- 76
2020-03-16 15:00:00 19.8 13 Norte 37 Nordeste -- -- -- 64
2020-03-16 14:00:00 18.8 10 Norte 28 Nordeste 0 -- -- 72
2020-03-16 13:00:00 20.2 11 Norte 28 Norte 0 -- -- 58
2020-03-16 12:00:00 20 13 Norte 34 Noroeste 0 -- -- 54
2020-03-16 11:00:00 20.9 18 Norte 35 Norte 0 -- -- 50
2020-03-16 10:00:00 19.6 12 Norte 37 Norte 0 -- -- 53
2020-03-16 09:00:00 19.4 10 Norte 31 Noroeste 0 -- -- 51
2020-03-16 08:00:00 17.9 10 Norte 30 Noroeste 0 -- -- 55
2020-03-16 07:00:00 17.5 11 Norte 31 Norte 0 -- -- 62
2020-03-16 06:00:00 17.5 8 Norte 27 Norte 0 -- -- 64
2020-03-16 05:00:00 17.7 7 Norte 26 Norte 0 -- -- 66
2020-03-16 04:00:00 18 9 Norte 29 Norte 0 -- -- 66
2020-03-16 03:00:00 18 8 Norte 24 Norte 0 -- -- 69
2020-03-16 02:00:00 17.5 6 Norte 23 Nordeste 0 -- -- 71
2020-03-16 01:00:00 17.5 9 Norte 22 Norte 0 -- -- 69
2020-03-16 00:00:00 17.1 8 Norte 20 Noroeste 0 -- -- 75
2020-03-15 23:00:00 17.4 7 Norte 21 Noroeste 0 -- -- 68
2020-03-15 22:00:00 18.2 6 Norte 23 Nordeste 0 -- -- 63
2020-03-15 21:00:00 18.2 5 Noroeste 27 Norte 0 -- -- 60
2020-03-15 20:00:00 18.2 9 Norte 30 Norte 0 -- -- 64
2020-03-15 19:00:00 18.2 9 Norte 31 Norte 0 -- -- 65
2020-03-15 18:00:00 18.4 7 Noroeste 24 Norte 0 -- -- 64
2020-03-15 17:00:00 19.2 5 Noroeste 30 Sur 0 -- -- 61
2020-03-15 16:00:00 19.9 9 Norte 32 Norte 0 -- -- 57
2020-03-15 15:00:00 19.3 13 Norte 36 Norte 0 -- -- 61
2020-03-15 14:00:00 21.3 11 Norte 27 Noroeste 0 -- -- 49
2020-03-15 13:00:00 18.6 11 Norte 34 Noroeste 0 -- -- 67
2020-03-15 12:00:00 20.2 10 Norte 41 Noroeste 0 -- -- 59
2020-03-15 11:00:00 18.7 5 Norte 30 Nordeste 0 -- -- 63
2020-03-15 10:00:00 18 5 Nordeste 24 Norte 0 -- -- 68
2020-03-15 09:00:00 19.1 8 Norte 32 Norte 0 -- -- 59
2020-03-15 08:00:00 17.6 4 Norte 19 Nordeste 0 -- -- 69
2020-03-15 07:00:00 16.8 6 Norte 28 Norte 0 -- -- 69
2020-03-15 06:00:00 16.7 6 Norte 29 Norte 0 -- -- 73
2020-03-15 05:00:00 16.3 5 Norte 18 Norte 0 -- -- 74
2020-03-15 04:00:00 16.2 3 Norte 24 Noroeste 0 -- -- 75
2020-03-15 03:00:00 15.3 3 Norte 23 Noroeste 0 -- -- 81
2020-03-15 02:00:00 16.8 8 Norte 23 Noroeste 0 -- -- 69
2020-03-15 01:00:00 18 5 Norte 28 Nordeste 0 -- -- 65
2020-03-15 00:00:00 18 4 Noroeste 30 Norte 0 -- -- 63
2020-03-14 23:00:00 17.9 10 Norte 22 Noroeste 0 -- -- 62
2020-03-14 22:00:00 18 6 Nordeste 25 Norte 0 -- -- 63
2020-03-14 21:00:00 18.2 7 Norte 29 Noroeste 0 -- -- 63
2020-03-14 20:00:00 18.4 5 Norte 27 Norte 0 -- -- 62
2020-03-14 19:00:00 18.6 7 Norte 22 Oeste 0 -- -- 59
2020-03-14 18:00:00 19.2 6 Norte 27 Noroeste 0 -- -- 57
2020-03-14 17:00:00 20.1 8 Norte 25 Noroeste 0 -- -- 52
2020-03-14 16:00:00 21.2 12 Norte 26 Noroeste 0 -- -- 50
2020-03-14 15:00:00 21.2 7 Norte 24 Norte 0 -- -- 52
2020-03-14 14:00:00 22.3 5 Sur 36 Sudeste 0 -- -- 51
2020-03-14 13:00:00 21.7 9 Sur 31 Sudeste 0 -- -- 55
2020-03-14 12:00:00 21.1 5 Noroeste 30 Norte 0 -- -- 58
2020-03-14 11:00:00 20.6 10 Norte 24 Nordeste 0 -- -- 55
2020-03-14 10:00:00 20 10 Norte 32 Norte 0 -- -- 56
2020-03-14 09:00:00 19.2 9 Norte 22 Nordeste 0 -- -- 56
2020-03-14 08:00:00 17.8 6 Norte 13 Nordeste 0 -- -- 62
2020-03-14 07:00:00 17.7 5 Norte 13 Norte 0 -- -- 65
2020-03-14 06:00:00 18.1 5 Norte 18 Norte 0 -- -- 68
2020-03-14 05:00:00 17.9 4 Norte 14 Norte 0 -- -- 69
2020-03-14 04:00:00 17.8 4 Norte 13 Norte 0 -- -- 68
2020-03-14 03:00:00 18 5 Norte 23 Norte 0 -- -- 65
2020-03-14 02:00:00 18.1 6 Norte 19 Noroeste 0 -- -- 66
2020-03-14 01:00:00 18.2 6 Norte 18 Nordeste 0 -- -- 66
2020-03-14 00:00:00 18.4 6 Norte 21 Noroeste 0 -- -- 65
2020-03-13 23:00:00 18.6 6 Norte 20 Noroeste 0 -- -- 67
2020-03-13 22:00:00 18.9 6 Norte 26 Noroeste 0 -- -- 67
2020-03-13 21:00:00 18.7 6 Norte 21 Nordeste 0 -- -- 69
2020-03-13 20:00:00 18.7 9 Norte 21 Nordeste 0 -- -- 70
2020-03-13 19:00:00 19.1 8 Norte 28 Norte 0 -- -- 67
2020-03-13 18:00:00 19.7 12 Norte 32 Nordeste 0 -- -- 63
2020-03-13 17:00:00 20.9 11 Norte 31 Nordeste 0 -- -- 59
2020-03-13 16:00:00 21.5 13 Norte 28 Norte 0 -- -- 58
2020-03-13 15:00:00 22.6 12 Norte 34 Norte 0 -- -- 56
2020-03-13 14:00:00 22.8 11 Norte 24 Norte 0 -- -- 54
2020-03-13 13:00:00 22.3 12 Norte 30 Norte 0 -- -- 55
2020-03-13 12:00:00 22.4 11 Norte 28 Norte 0 -- -- 55
2020-03-13 11:00:00 22.2 12 Norte 33 Noroeste 0 -- -- 57
2020-03-13 10:00:00 20.5 11 Norte 30 Norte 0 -- -- 60
2020-03-13 09:00:00 19.3 10 Norte 30 Nordeste 0 -- -- 64
2020-03-13 08:00:00 18 14 Norte 34 Nordeste 0 -- -- 71
2020-03-13 07:00:00 17.5 10 Norte 31 Norte 0 -- -- 73
2020-03-13 06:00:00 17.6 11 Norte 26 Norte 0 -- -- 73
2020-03-13 05:00:00 17.7 12 Norte 29 Norte 0 -- -- 72
2020-03-13 04:00:00 17.9 15 Norte 34 Nordeste 0 -- -- 71
2020-03-13 03:00:00 18 12 Norte 30 Norte 0 -- -- 72
2020-03-13 02:00:00 18.1 10 Norte 28 Norte 0 -- -- 72
2020-03-13 01:00:00 16.5 0 Calma 7 Norte 0 -- -- 79
2020-03-13 00:00:00 16.3 2 Norte 6 Norte 0 -- -- 81
2020-03-12 23:00:00 16.8 0 Calma 7 Norte 0 -- -- 79
2020-03-12 22:00:00 17.5 2 Norte 5 Norte 0 -- -- 77
2020-03-12 21:00:00 19 3 Sur 8 Sudeste 0 -- -- 75
2020-03-12 20:00:00 19.6 4 Sur 14 Sur 0 -- -- 73
2020-03-12 19:00:00 20.6 7 Sudeste 14 Sudeste 0 -- -- 71
2020-03-12 18:00:00 21.6 6 Sudeste 21 Sudeste 0 -- -- 66
2020-03-12 17:00:00 23.5 8 Sudeste 18 Sudeste 0 -- -- 55
2020-03-12 16:00:00 24.4 9 Sur 22 Sudeste 0 -- -- 54
2020-03-12 15:00:00 24 11 Sur 23 Sudoeste 0 -- -- 59
2020-03-12 14:00:00 24.6 11 Sur 22 Sudoeste 0 -- -- 55
2020-03-12 13:00:00 25.7 11 Sur 23 Sur 0 -- -- 43
2020-03-12 12:00:00 26 9 Sur 14 Sur 0 -- -- 40
2020-03-12 11:00:00 23.9 5 Sudeste 12 Sur 0 -- -- 52
2020-03-12 10:00:00 22.2 5 Sur 11 Sur 0 -- -- 61
2020-03-12 09:00:00 18.7 0 Calma 10 Norte 0 -- -- 50
2020-03-12 08:00:00 14.6 6 Norte 10 Norte 0 -- -- 47
2020-03-12 07:00:00 14.3 5 Norte 11 Norte 0 -- -- 51
2020-03-12 06:00:00 14.3 7 Norte 10 Norte 0 -- -- 81
2020-03-12 05:00:00 14.3 4 Norte 10 Norte 0 -- -- 81
2020-03-12 04:00:00 14.4 5 Norte 9 Norte 0 -- -- 79
2020-03-12 03:00:00 14.9 3 Norte 12 Norte 0 -- -- 79
2020-03-12 02:00:00 15.7 3 Norte 10 Norte 0 -- -- 83
2020-03-12 01:00:00 15.7 3 Norte 8 Norte 0 -- -- 82
2020-03-12 00:00:00 15.2 5 Norte 8 Norte 0 -- -- 81
2020-03-11 23:00:00 16.1 3 Norte 6 Norte 0 -- -- 85
2020-03-11 22:00:00 16.4 5 Norte 8 Norte 0 -- -- 83
2020-03-11 21:00:00 17.1 3 Norte 6 Norte 0 -- -- 83
2020-03-11 20:00:00 18.3 0 Calma 5 Sudoeste 0 -- -- 83
2020-03-11 19:00:00 19.2 3 Sudoeste 12 Sudeste 0 -- -- 81
2020-03-11 18:00:00 20.1 5 Sur 15 Sur 0 -- -- 79
2020-03-11 17:00:00 21.6 8 Sur 18 Sur 0 -- -- 73
2020-03-11 16:00:00 23.2 6 Sur 16 Sudeste 0 -- -- 65
2020-03-11 15:00:00 22 10 Sur 18 Sur 0 -- -- 70
2020-03-11 14:00:00 23.4 9 Sur 20 Sudeste 0 -- -- 65
2020-03-11 13:00:00 22.9 8 Sudeste 15 Sudeste 0 -- -- 64
2020-03-11 12:00:00 22.3 8 Sur 17 Sudeste 0 -- -- 66
2020-03-11 11:00:00 20.2 7 Sudeste 13 Sudeste 0 -- -- 72
2020-03-11 10:00:00 19.6 3 Sudeste 8 Sudeste 0 -- -- 73
2020-03-11 09:00:00 17.6 3 Norte 7 Norte 0 -- -- 75
2020-03-11 08:00:00 14.9 5 Norte 10 Norte 0 -- -- 81
2020-03-11 07:00:00 14.3 5 Norte 10 Noroeste 0 -- -- 79
2020-03-11 06:00:00 13.8 5 Norte 9 Norte 0 -- -- 75
2020-03-11 05:00:00 13.2 5 Norte 9 Norte 0 -- -- 72
2020-03-11 04:00:00 14.1 6 Norte 9 Norte 0 -- -- 73
2020-03-11 03:00:00 14.1 5 Norte 8 Norte 0 -- -- 75
2020-03-11 02:00:00 14.6 4 Norte 8 Nordeste 0 -- -- 78
2020-03-11 01:00:00 15.2 5 Norte 12 Norte 0 -- -- 78
2020-03-11 00:00:00 16 3 Norte 12 Norte 0 -- -- 78
2020-03-10 23:00:00 16.2 3 Norte 10 Norte 0 -- -- 77
2020-03-10 22:00:00 16.6 4 Norte 8 Nordeste 0 -- -- 79
2020-03-10 21:00:00 17.1 4 Norte 7 Norte 0 -- -- 79
2020-03-10 20:00:00 18.6 4 Sur 10 Sur 0 -- -- 76
2020-03-10 19:00:00 19.2 6 Sudeste 15 Sudeste 0 -- -- 75
2020-03-10 18:00:00 20.4 5 Sur 20 Sudeste 0 -- -- 70
2020-03-10 17:00:00 21.6 9 Sudeste 20 Sudeste 0 -- -- 67
2020-03-10 16:00:00 22.3 10 Sudeste 23 Sudeste 0 -- -- 64
2020-03-10 15:00:00 22.5 11 Sudeste 27 Sur 0 -- -- 62
2020-03-10 14:00:00 22.9 10 Sur 26 Sudeste 0 -- -- 62
2020-03-10 13:00:00 22.7 10 Sudeste 26 Sudeste 0 -- -- 62
2020-03-10 12:00:00 23 9 Sudeste 23 Sudeste 0 -- -- 62
2020-03-10 11:00:00 23.1 7 Sur 15 Sur 0 -- -- 55
2020-03-10 10:00:00 21.4 5 Sudeste 12 Sudeste 0 -- -- 62
2020-03-10 09:00:00 18.5 0 Calma 9 Norte 0 -- -- 68
2020-03-10 08:00:00 13.8 5 Norte 10 Norte 0 -- -- 76
2020-03-10 07:00:00 13.4 6 Norte 10 Norte 0 -- -- 78
2020-03-10 06:00:00 13.6 6 Norte 10 Norte 0 -- -- 78
2020-03-10 05:00:00 13.8 5 Norte 10 Noroeste 0 -- -- 75
2020-03-10 04:00:00 14.6 5 Norte 9 Noroeste 0 -- -- 70
2020-03-10 03:00:00 14.5 5 Norte 10 Norte 0 -- -- 68
2020-03-10 02:00:00 15 5 Norte 10 Norte 0 -- -- 71
2020-03-10 01:00:00 15.4 5 Norte 8 Norte 0 -- -- 74
2020-03-10 00:00:00 16 4 Norte 8 Noroeste 0 -- -- 81
2020-03-09 23:00:00 16.4 4 Norte 6 Norte 0 -- -- 78
2020-03-09 22:00:00 17.7 2 Norte 15 Sudeste 0 -- -- 74
2020-03-09 21:00:00 18.9 4 Sur 16 Sudoeste 0 -- -- 74
2020-03-09 20:00:00 19.3 6 Sur 21 Sur 0 -- -- 74
2020-03-09 19:00:00 20.3 8 Sur 19 Sudeste 0 -- -- 70
2020-03-09 18:00:00 21.5 7 Sur 20 Sudoeste 0 -- -- 61
2020-03-09 17:00:00 23.5 9 Sudoeste 15 Sudoeste 0 -- -- 50
2020-03-09 16:00:00 24.9 9 Sur 20 Sur 0 -- -- 46
2020-03-09 15:00:00 25.5 8 Sur 21 Sur 0 -- -- 50
2020-03-09 14:00:00 23.6 9 Sur 19 Sur 0 -- -- 55
2020-03-09 13:00:00 23.4 10 Sudeste 22 Sudeste 0 -- -- 60
2020-03-09 12:00:00 23 10 Sur 23 Sudeste 0 -- -- 59
2020-03-09 11:00:00 22.6 9 Sur 20 Sudeste 0 -- -- 63
2020-03-09 10:00:00 22.3 4 Sur 18 Sudoeste 0 -- -- 55
2020-03-09 09:00:00 18.8 3 Norte 10 Sudoeste 0 -- -- 64
2020-03-09 08:00:00 15.4 3 Norte 10 Noroeste 0 -- -- 75
2020-03-09 07:00:00 15.4 4 Norte 11 Oeste 0 -- -- 80
2020-03-09 06:00:00 15 5 Norte 14 Noroeste 0 -- -- 86
2020-03-09 05:00:00 15.2 4 Norte 10 Noroeste 0 -- -- 79
2020-03-09 04:00:00 15.6 4 Norte 9 Norte 0 -- -- 79
2020-03-09 03:00:00 15.5 3 Norte 9 Norte 0 -- -- 84
2020-03-09 02:00:00 15.9 5 Norte 9 Norte -- -- -- 83
2020-03-09 01:00:00 16.2 4 Norte 10 Nordeste 0 -- -- 83
2020-03-09 00:00:00 16.4 4 Norte 9 Norte 0 -- -- 80